In Rescue
 
Open Full Screen Window  High Contrast Mode
Wind Gusting 17 knots
12
May 19, 2019 12:39 PM CDT
Weather Information
Wind Direction
  070 °
Wind Speed
  12 kt (14 mph)
Wind Gust
  17 kt (20 mph)
Altimeter
29.94 in
Visibility
10 SM
Temperature
06° C
43° F
Dewpoint
-07° C
19° F
Humidity
39%
1hr Rain Fall
00.00 in.
24hr Rain Fall
00.00 in.
Sky Condition
Overcast @ 6,500 ft
VFR

METAR KELO 191739Z AUTO 07012G17KT 10SM OVC065 06/M07 A2994 RMK AO2

FAA Disclaimer: The data displayed is for advisory purposes only and is not to be used for flight planning or operations.